Time;durP1;ratioP1;P1;durP2;ratioP2;P2;SDS_P1;SDS_P2;PMS_P1;PMS_P2;Temp;Humidity;BMP_temperature;BMP_pressure;BME280_temperature;BME280_humidity;BME280_pressure;Samples;Min_cycle;Max_cycle;Signal;HPM_P1;HPM_P2
2022/04/03 00:01:13;;;;;;;8.02;5.43;;;;;;;;;;5038657;28;20068;-72
2022/04/03 00:03:39;;;;;;;8.27;5.28;;;;;;;;;;5044956;28;20032;-73
2022/04/03 00:06:05;;;;;;;9.95;5.85;;;;;;;;;;5047410;28;20398;-72
2022/04/03 00:08:31;;;;;;;9.27;5.70;;;;;;;;;;5039443;28;20462;-73
2022/04/03 00:10:57;;;;;;;8.40;5.78;;;;;;;;;;5042814;28;20062;-72
2022/04/03 00:13:24;;;;;;;10.65;6.03;;;;;;;;;;5039232;28;20079;-72
2022/04/03 00:15:50;;;;;;;8.50;5.28;;;;;;;;;;5038385;28;20090;-72
2022/04/03 00:18:16;;;;;;;8.57;5.80;;;;;;;;;;5039287;28;20036;-72
2022/04/03 00:20:42;;;;;;;8.15;5.60;;;;;;;;;;5044550;28;20044;-72
2022/04/03 00:23:09;;;;;;;8.75;5.78;;;;;;;;;;5048895;28;20043;-72
2022/04/03 00:25:35;;;;;;;8.85;6.35;;;;;;;;;;5047734;28;20406;-73
2022/04/03 00:28:01;;;;;;;11.30;7.45;;;;;;;;;;5046947;28;20029;-72
2022/04/03 00:30:27;;;;;;;9.80;6.05;;;;;;;;;;5048823;28;20029;-72
2022/04/03 00:32:53;;;;;;;10.85;7.38;;;;;;;;;;5035552;28;20029;-72
2022/04/03 00:35:20;;;;;;;10.07;6.50;;;;;;;;;;5042998;28;20094;-73
2022/04/03 00:37:46;;;;;;;10.65;7.72;;;;;;;;;;5039796;28;20033;-73
2022/04/03 00:40:13;;;;;;;9.32;6.13;;;;;;;;;;5045380;28;20033;-72
2022/04/03 00:42:39;;;;;;;10.75;7.63;;;;;;;;;;5044651;28;20376;-72
2022/04/03 00:45:06;;;;;;;11.20;6.80;;;;;;;;;;5040298;28;20051;-72
2022/04/03 00:47:32;;;;;;;10.60;6.55;;;;;;;;;;5036758;28;20037;-72
2022/04/03 00:49:59;;;;;;;9.85;5.97;;;;;;;;;;5038888;28;20037;-72
2022/04/03 00:52:25;;;;;;;10.70;7.50;;;;;;;;;;5045618;28;20052;-73
2022/04/03 00:54:51;;;;;;;10.13;6.78;;;;;;;;;;5049406;28;20033;-72
2022/04/03 00:57:18;;;;;;;10.00;7.45;;;;;;;;;;5048928;28;20029;-72
2022/04/03 00:59:44;;;;;;;10.40;7.18;;;;;;;;;;5047253;28;20823;-72
2022/04/03 01:02:10;;;;;;;10.60;7.05;;;;;;;;;;5046559;28;20538;-72
2022/04/03 01:04:39;;;;;;;11.13;7.70;;;;;;;;;;5034695;28;20064;-72
2022/04/03 01:07:06;;;;;;;9.82;6.70;;;;;;;;;;5032621;28;20079;-72
2022/04/03 01:09:32;;;;;;;12.10;7.43;;;;;;;;;;5049021;28;20044;-72
2022/04/03 01:11:58;;;;;;;12.10;8.52;;;;;;;;;;5042607;28;20051;-72
2022/04/03 01:14:31;;;;;;;10.50;6.82;;;;;;;;;;5048631;28;20025;-72
2022/04/03 01:16:57;;;;;;;9.93;7.25;;;;;;;;;;5042847;28;20037;-72
2022/04/03 01:19:24;;;;;;;10.00;6.63;;;;;;;;;;5046879;28;20511;-72
2022/04/03 01:21:51;;;;;;;10.63;7.35;;;;;;;;;;5039881;28;20448;-72
2022/04/03 01:24:26;;;;;;;9.55;6.47;;;;;;;;;;5039824;28;20052;-72
2022/04/03 01:26:52;;;;;;;9.50;6.47;;;;;;;;;;5035492;28;20041;-71
2022/04/03 01:29:19;;;;;;;9.70;7.22;;;;;;;;;;5045450;28;20547;-72
2022/04/03 01:31:46;;;;;;;10.70;8.27;;;;;;;;;;5043224;28;20021;-72
2022/04/03 01:34:13;;;;;;;10.77;7.32;;;;;;;;;;5035662;28;20037;-72
2022/04/03 01:36:39;;;;;;;11.57;8.63;;;;;;;;;;5034175;28;20029;-72
2022/04/03 01:39:05;;;;;;;12.55;8.57;;;;;;;;;;5041355;28;20029;-73
2022/04/03 01:41:31;;;;;;;10.93;8.02;;;;;;;;;;5043412;28;20050;-72
2022/04/03 01:43:57;;;;;;;11.35;7.90;;;;;;;;;;5041265;28;20116;-72
2022/04/03 01:46:23;;;;;;;12.95;7.70;;;;;;;;;;5042261;28;20041;-72
2022/04/03 01:48:49;;;;;;;13.57;8.63;;;;;;;;;;5033495;28;20076;-72
2022/04/03 01:51:15;;;;;;;11.65;8.52;;;;;;;;;;5040696;28;20041;-72
2022/04/03 01:53:41;;;;;;;12.90;8.50;;;;;;;;;;5039825;28;20029;-72
2022/04/03 01:56:08;;;;;;;12.30;7.78;;;;;;;;;;5049729;28;20037;-72
2022/04/03 01:58:35;;;;;;;11.63;8.43;;;;;;;;;;5044356;28;20078;-72
2022/04/03 02:01:01;;;;;;;13.13;8.77;;;;;;;;;;5048878;28;20124;-72
2022/04/03 02:03:28;;;;;;;12.13;8.95;;;;;;;;;;5047164;28;20083;-72
2022/04/03 02:05:55;;;;;;;12.95;8.82;;;;;;;;;;5036858;28;20363;-72
2022/04/03 02:08:21;;;;;;;11.07;7.75;;;;;;;;;;5039492;28;20476;-73
2022/04/03 02:10:47;;;;;;;12.18;9.43;;;;;;;;;;5041806;28;20044;-72
2022/04/03 02:13:13;;;;;;;13.18;7.95;;;;;;;;;;5037493;28;20025;-72
2022/04/03 02:15:39;;;;;;;11.73;8.38;;;;;;;;;;5036702;28;20420;-73
2022/04/03 02:18:05;;;;;;;11.15;8.10;;;;;;;;;;5038395;28;20025;-72
2022/04/03 02:20:31;;;;;;;12.55;9.23;;;;;;;;;;5042676;28;20053;-72
2022/04/03 02:23:01;;;;;;;11.75;8.77;;;;;;;;;;5041000;28;20025;-72
2022/04/03 02:25:28;;;;;;;10.55;7.35;;;;;;;;;;5034945;28;20045;-72
2022/04/03 02:27:54;;;;;;;12.68;8.95;;;;;;;;;;5037247;28;20103;-72
2022/04/03 02:30:20;;;;;;;11.95;8.05;;;;;;;;;;5037122;28;20034;-72
2022/04/03 02:32:46;;;;;;;15.77;8.27;;;;;;;;;;5037631;28;20032;-72
2022/04/03 02:35:14;;;;;;;14.48;8.82;;;;;;;;;;5040962;28;20038;-72
2022/04/03 02:37:41;;;;;;;13.55;8.98;;;;;;;;;;5037703;28;20075;-72
2022/04/03 02:40:08;;;;;;;12.48;8.88;;;;;;;;;;5041538;28;20095;-72
2022/04/03 02:42:34;;;;;;;12.52;8.30;;;;;;;;;;5043406;28;20476;-72
2022/04/03 02:45:01;;;;;;;11.13;7.57;;;;;;;;;;5038893;28;20361;-72
2022/04/03 02:47:27;;;;;;;14.23;9.13;;;;;;;;;;5043266;28;20083;-72
2022/04/03 02:49:53;;;;;;;13.00;9.63;;;;;;;;;;5038266;28;20052;-72
2022/04/03 02:52:20;;;;;;;11.68;7.93;;;;;;;;;;5035266;28;20043;-72
2022/04/03 02:54:47;;;;;;;12.70;8.30;;;;;;;;;;5040656;28;20055;-72
2022/04/03 02:57:14;;;;;;;15.38;9.40;;;;;;;;;;5044541;28;20072;-72
2022/04/03 02:59:40;;;;;;;13.48;10.13;;;;;;;;;;5038887;28;20040;-73
2022/04/03 03:02:06;;;;;;;13.75;9.07;;;;;;;;;;5033093;28;20033;-72
2022/04/03 03:04:35;;;;;;;11.50;8.20;;;;;;;;;;5043971;28;20049;-72
2022/04/03 03:07:01;;;;;;;11.02;7.97;;;;;;;;;;5043916;28;20033;-72
2022/04/03 03:09:27;;;;;;;13.63;8.80;;;;;;;;;;5041235;28;20033;-72
2022/04/03 03:11:53;;;;;;;14.55;9.57;;;;;;;;;;5043458;28;20040;-72
2022/04/03 03:14:19;;;;;;;11.45;8.32;;;;;;;;;;5040367;28;20025;-72
2022/04/03 03:16:45;;;;;;;10.70;7.70;;;;;;;;;;5034883;28;20071;-72
2022/04/03 03:19:11;;;;;;;12.32;9.05;;;;;;;;;;5032851;28;20029;-72
2022/04/03 03:21:37;;;;;;;13.05;9.13;;;;;;;;;;5034306;28;20530;-72
2022/04/03 03:24:03;;;;;;;12.23;9.15;;;;;;;;;;5035764;28;20056;-73
2022/04/03 03:26:29;;;;;;;13.07;9.77;;;;;;;;;;5040057;28;20044;-72
2022/04/03 03:28:55;;;;;;;12.32;8.95;;;;;;;;;;5044606;28;20120;-72
2022/04/03 03:31:21;;;;;;;11.82;8.13;;;;;;;;;;5046135;28;20112;-73
2022/04/03 03:33:48;;;;;;;11.38;8.57;;;;;;;;;;5043950;28;20029;-72
2022/04/03 03:36:14;;;;;;;14.23;9.48;;;;;;;;;;5045607;28;20029;-72
2022/04/03 03:38:40;;;;;;;11.88;8.43;;;;;;;;;;5040319;28;20650;-72
2022/04/03 03:41:06;;;;;;;12.02;7.70;;;;;;;;;;5038014;28;20427;-72
2022/04/03 03:43:33;;;;;;;11.60;9.00;;;;;;;;;;5036281;28;20061;-72
2022/04/03 03:45:59;;;;;;;11.68;7.95;;;;;;;;;;5042488;28;20041;-72
2022/04/03 03:48:25;;;;;;;11.98;9.30;;;;;;;;;;5040609;28;20033;-72
2022/04/03 03:50:51;;;;;;;13.07;8.88;;;;;;;;;;5033875;28;20037;-72
2022/04/03 03:53:18;;;;;;;12.73;9.02;;;;;;;;;;5035047;28;20032;-72
2022/04/03 03:55:44;;;;;;;11.38;8.05;;;;;;;;;;5042487;28;20037;-72
2022/04/03 03:58:10;;;;;;;12.25;8.70;;;;;;;;;;5036672;28;20041;-72
2022/04/03 04:00:37;;;;;;;10.63;7.60;;;;;;;;;;5038748;28;20140;-72
2022/04/03 04:03:03;;;;;;;17.63;10.68;;;;;;;;;;5040902;28;20067;-72
2022/04/03 04:05:29;;;;;;;14.55;9.98;;;;;;;;;;5039148;28;20063;-72
2022/04/03 04:07:55;;;;;;;13.10;10.02;;;;;;;;;;5028215;28;20040;-72
2022/04/03 04:10:21;;;;;;;16.88;11.95;;;;;;;;;;5038150;28;20041;-72
2022/04/03 04:12:47;;;;;;;12.88;9.55;;;;;;;;;;5036031;28;20052;-72
2022/04/03 04:15:14;;;;;;;13.27;10.10;;;;;;;;;;5031583;28;20468;-72
2022/04/03 04:17:44;;;;;;;13.77;9.95;;;;;;;;;;5038461;28;20033;-72
2022/04/03 04:20:12;;;;;;;13.95;10.27;;;;;;;;;;5045926;28;20564;-72
2022/04/03 04:22:42;;;;;;;13.18;9.35;;;;;;;;;;5033314;28;20676;-72
2022/04/03 04:25:08;;;;;;;11.45;8.65;;;;;;;;;;5037483;28;20120;-72
2022/04/03 04:27:34;;;;;;;11.77;8.15;;;;;;;;;;5037141;28;20025;-72
2022/04/03 04:30:00;;;;;;;14.45;10.13;;;;;;;;;;5036020;28;20045;-72
2022/04/03 04:32:27;;;;;;;13.23;9.77;;;;;;;;;;5032145;28;20034;-72
2022/04/03 04:34:53;;;;;;;10.23;7.75;;;;;;;;;;5038257;28;20730;-72
2022/04/03 04:37:19;;;;;;;12.43;8.63;;;;;;;;;;5041102;28;20025;-72
2022/04/03 04:39:46;;;;;;;12.02;9.35;;;;;;;;;;5047228;28;20383;-73
2022/04/03 04:42:12;;;;;;;13.15;9.13;;;;;;;;;;5043841;28;20025;-72
2022/04/03 04:44:38;;;;;;;12.45;9.60;;;;;;;;;;5041198;28;20095;-73
2022/04/03 04:47:04;;;;;;;11.27;8.40;;;;;;;;;;5037254;28;20108;-72
2022/04/03 04:49:31;;;;;;;12.55;9.45;;;;;;;;;;5042358;28;20033;-72
2022/04/03 04:51:57;;;;;;;13.07;10.15;;;;;;;;;;5038750;28;20062;-72
2022/04/03 04:54:25;;;;;;;14.10;10.63;;;;;;;;;;5038114;28;20480;-72
2022/04/03 04:56:51;;;;;;;12.13;9.02;;;;;;;;;;5034125;28;20843;-72
2022/04/03 04:59:17;;;;;;;13.73;10.18;;;;;;;;;;5043746;28;20057;-72
2022/04/03 05:01:43;;;;;;;13.00;10.38;;;;;;;;;;5038486;28;20116;-72
2022/04/03 05:04:09;;;;;;;13.35;10.52;;;;;;;;;;5035016;28;20504;-72
2022/04/03 05:06:36;;;;;;;13.43;10.38;;;;;;;;;;5042152;28;20056;-72
2022/04/03 05:09:03;;;;;;;13.23;9.88;;;;;;;;;;5045452;28;20489;-72
2022/04/03 05:11:29;;;;;;;13.75;10.52;;;;;;;;;;5044344;28;20033;-72
2022/04/03 05:13:56;;;;;;;14.68;10.65;;;;;;;;;;5037579;28;20034;-72
2022/04/03 05:16:22;;;;;;;15.73;11.95;;;;;;;;;;5046413;28;20047;-72
2022/04/03 05:18:48;;;;;;;20.20;12.60;;;;;;;;;;5031318;28;20030;-72
2022/04/03 05:21:14;;;;;;;12.90;9.93;;;;;;;;;;5038924;28;20072;-72
2022/04/03 05:23:41;;;;;;;13.82;10.93;;;;;;;;;;5046869;28;20033;-72
2022/04/03 05:26:07;;;;;;;14.45;10.77;;;;;;;;;;5039601;28;20764;-72
2022/04/03 05:28:35;;;;;;;14.00;10.48;;;;;;;;;;5043460;28;20059;-72
2022/04/03 05:31:01;;;;;;;12.75;9.73;;;;;;;;;;5037333;28;20053;-72
2022/04/03 05:33:27;;;;;;;14.73;11.85;;;;;;;;;;5038607;28;20105;-72
2022/04/03 05:35:53;;;;;;;16.30;12.02;;;;;;;;;;5040262;28;20116;-72
2022/04/03 05:38:19;;;;;;;13.55;10.63;;;;;;;;;;5033312;28;20037;-72
2022/04/03 05:40:45;;;;;;;14.55;11.38;;;;;;;;;;5041378;28;20037;-72
2022/04/03 05:43:12;;;;;;;15.10;12.10;;;;;;;;;;5038918;28;20124;-71
2022/04/03 05:45:38;;;;;;;14.68;11.10;;;;;;;;;;5047281;28;20423;-72
2022/04/03 05:48:05;;;;;;;16.58;13.27;;;;;;;;;;5037100;28;20528;-72
2022/04/03 05:50:31;;;;;;;14.63;11.43;;;;;;;;;;5048139;28;20045;-72
2022/04/03 05:52:57;;;;;;;15.63;10.73;;;;;;;;;;5049427;28;20518;-72
2022/04/03 05:55:23;;;;;;;15.57;11.60;;;;;;;;;;5049123;28;20033;-72
2022/04/03 05:57:50;;;;;;;14.43;11.05;;;;;;;;;;5045096;28;20037;-72
2022/04/03 06:00:17;;;;;;;15.50;12.30;;;;;;;;;;5038226;28;20395;-72
2022/04/03 06:03:00;;;;;;;14.88;11.20;;;;;;;;;;5037914;28;20064;-72
2022/04/03 06:05:27;;;;;;;13.82;10.90;;;;;;;;;;5036711;28;20052;-72
2022/04/03 06:07:53;;;;;;;14.02;10.15;;;;;;;;;;5043497;28;20032;-72
2022/04/03 06:10:20;;;;;;;16.33;10.13;;;;;;;;;;5038937;28;20090;-72
2022/04/03 06:12:59;;;;;;;13.40;10.85;;;;;;;;;;5031469;28;20034;-72
2022/04/03 06:15:31;;;;;;;14.20;10.27;;;;;;;;;;5037431;28;20106;-72
2022/04/03 06:17:57;;;;;;;15.35;11.25;;;;;;;;;;5040772;28;20060;-72
2022/04/03 06:20:23;;;;;;;12.90;9.40;;;;;;;;;;5035119;28;20049;-72
2022/04/03 06:22:49;;;;;;;14.70;11.20;;;;;;;;;;5038357;28;20033;-72
2022/04/03 06:25:15;;;;;;;14.35;9.77;;;;;;;;;;5040715;28;20040;-72
2022/04/03 06:27:42;;;;;;;14.27;10.95;;;;;;;;;;5038234;28;20123;-73
2022/04/03 06:30:09;;;;;;;12.93;9.73;;;;;;;;;;5046480;28;20376;-72
2022/04/03 06:32:35;;;;;;;13.52;10.38;;;;;;;;;;5042731;28;20029;-72
2022/04/03 06:35:01;;;;;;;15.07;11.60;;;;;;;;;;5043971;28;20055;-73
2022/04/03 06:37:27;;;;;;;14.23;11.52;;;;;;;;;;5043902;28;20084;-72
2022/04/03 06:39:53;;;;;;;14.93;11.38;;;;;;;;;;5045546;28;20048;-72
2022/04/03 06:42:19;;;;;;;15.27;11.27;;;;;;;;;;5042464;28;20525;-72
2022/04/03 06:44:45;;;;;;;19.45;11.55;;;;;;;;;;5042411;28;20061;-72
2022/04/03 06:47:11;;;;;;;14.45;10.25;;;;;;;;;;5046005;28;20032;-73
2022/04/03 06:49:40;;;;;;;13.40;10.30;;;;;;;;;;5038341;28;20149;-72
2022/04/03 06:52:08;;;;;;;14.38;10.70;;;;;;;;;;5046553;28;20025;-72
2022/04/03 06:54:34;;;;;;;12.82;9.90;;;;;;;;;;5036820;28;20071;-73
2022/04/03 06:57:00;;;;;;;14.05;9.57;;;;;;;;;;5041286;28;20033;-73
2022/04/03 06:59:27;;;;;;;13.02;9.73;;;;;;;;;;5054713;28;20527;-73
2022/04/03 07:01:53;;;;;;;14.10;10.20;;;;;;;;;;5037971;28;20041;-72
2022/04/03 07:04:19;;;;;;;16.05;10.75;;;;;;;;;;5039454;28;20044;-73
2022/04/03 07:06:45;;;;;;;14.98;11.82;;;;;;;;;;5042607;28;20068;-73
2022/04/03 07:09:11;;;;;;;13.40;9.85;;;;;;;;;;5035560;28;20472;-72
2022/04/03 07:11:37;;;;;;;13.90;9.80;;;;;;;;;;5038522;28;20026;-72
2022/04/03 07:14:03;;;;;;;13.32;9.75;;;;;;;;;;5041270;28;20028;-73
2022/04/03 07:16:29;;;;;;;14.18;10.55;;;;;;;;;;5040994;28;20039;-72
2022/04/03 07:18:56;;;;;;;14.27;11.18;;;;;;;;;;5039124;28;20037;-73
2022/04/03 07:21:22;;;;;;;13.73;10.65;;;;;;;;;;5044240;28;20029;-72
2022/04/03 07:23:48;;;;;;;12.52;9.52;;;;;;;;;;5041906;28;20033;-72
2022/04/03 07:26:14;;;;;;;12.90;10.25;;;;;;;;;;5038094;28;20099;-72
2022/04/03 07:28:40;;;;;;;13.70;10.32;;;;;;;;;;5035750;28;20048;-72
2022/04/03 07:31:06;;;;;;;14.82;9.75;;;;;;;;;;5038112;28;20109;-73
2022/04/03 07:33:32;;;;;;;11.98;9.00;;;;;;;;;;5036099;28;20084;-72
2022/04/03 07:35:58;;;;;;;12.15;9.23;;;;;;;;;;5032781;28;20041;-72
2022/04/03 07:38:24;;;;;;;13.60;9.40;;;;;;;;;;5036407;28;20053;-73
2022/04/03 07:40:50;;;;;;;14.25;9.05;;;;;;;;;;5033663;28;20073;-73
2022/04/03 07:43:17;;;;;;;13.70;10.00;;;;;;;;;;5033321;28;20061;-72
2022/04/03 07:45:43;;;;;;;15.40;11.68;;;;;;;;;;5031712;28;20082;-72
2022/04/03 07:48:10;;;;;;;14.77;10.00;;;;;;;;;;5038638;28;20140;-72
2022/04/03 07:50:36;;;;;;;14.70;10.65;;;;;;;;;;5040335;28;20036;-73
2022/04/03 07:53:02;;;;;;;13.88;9.05;;;;;;;;;;5039569;28;20125;-73
2022/04/03 07:55:28;;;;;;;12.27;9.77;;;;;;;;;;5039351;28;20037;-73
2022/04/03 07:57:54;;;;;;;13.75;10.32;;;;;;;;;;5038176;28;20025;-73
2022/04/03 08:00:20;;;;;;;14.20;10.05;;;;;;;;;;5039066;28;20033;-72
2022/04/03 08:02:46;;;;;;;12.73;9.65;;;;;;;;;;5040994;28;20036;-73
2022/04/03 08:05:12;;;;;;;13.65;10.35;;;;;;;;;;5038957;28;20037;-73
2022/04/03 08:07:40;;;;;;;14.18;9.68;;;;;;;;;;5036511;28;20038;-73
2022/04/03 08:10:08;;;;;;;12.23;8.63;;;;;;;;;;5035795;28;20470;-72
2022/04/03 08:12:37;;;;;;;13.45;9.27;;;;;;;;;;5039353;28;20028;-73
2022/04/03 08:15:04;;;;;;;10.95;7.40;;;;;;;;;;5039226;28;20040;-72
2022/04/03 08:17:30;;;;;;;11.63;9.32;;;;;;;;;;5040663;28;20025;-73
2022/04/03 08:19:56;;;;;;;13.63;9.23;;;;;;;;;;5040429;28;20044;-73
2022/04/03 08:22:22;;;;;;;12.40;8.82;;;;;;;;;;5039761;28;20387;-73
2022/04/03 08:24:49;;;;;;;11.48;8.90;;;;;;;;;;5041864;28;20056;-73
2022/04/03 08:27:15;;;;;;;13.00;9.32;;;;;;;;;;5032181;28;20021;-72
2022/04/03 08:29:41;;;;;;;14.35;9.40;;;;;;;;;;5039010;28;20048;-73
2022/04/03 08:32:07;;;;;;;11.40;9.30;;;;;;;;;;5036816;28;20048;-72
2022/04/03 08:34:34;;;;;;;11.98;9.02;;;;;;;;;;5036570;28;20075;-73
2022/04/03 08:37:00;;;;;;;11.90;8.65;;;;;;;;;;5035534;28;20020;-73
2022/04/03 08:39:26;;;;;;;10.88;8.40;;;;;;;;;;5038852;28;20033;-74
2022/04/03 08:41:53;;;;;;;10.52;7.55;;;;;;;;;;5060853;28;20033;-73
2022/04/03 08:44:19;;;;;;;11.52;8.57;;;;;;;;;;5047104;28;20052;-72
2022/04/03 08:46:48;;;;;;;11.13;8.43;;;;;;;;;;5042614;28;20033;-72
2022/04/03 08:49:19;;;;;;;12.82;9.00;;;;;;;;;;5041979;28;20426;-73
2022/04/03 08:51:46;;;;;;;12.35;8.05;;;;;;;;;;5040835;28;20120;-73
2022/04/03 08:54:13;;;;;;;10.82;7.63;;;;;;;;;;5041573;28;20021;-73
2022/04/03 08:56:40;;;;;;;10.82;8.18;;;;;;;;;;5037717;28;20025;-73
2022/04/03 08:59:06;;;;;;;12.27;8.98;;;;;;;;;;5041066;28;20781;-73
2022/04/03 09:01:32;;;;;;;14.00;8.25;;;;;;;;;;5037253;28;20864;-72
2022/04/03 09:03:58;;;;;;;10.80;8.45;;;;;;;;;;5042433;28;20051;-73
2022/04/03 09:06:24;;;;;;;11.77;8.35;;;;;;;;;;5042274;28;20438;-72
2022/04/03 09:08:50;;;;;;;10.70;7.93;;;;;;;;;;5040031;28;20128;-73
2022/04/03 09:11:16;;;;;;;10.80;6.25;;;;;;;;;;5036713;28;20029;-72
2022/04/03 09:13:43;;;;;;;12.18;7.60;;;;;;;;;;5033631;28;20037;-73
2022/04/03 09:16:10;;;;;;;10.27;7.55;;;;;;;;;;5038098;28;20112;-72
2022/04/03 09:18:47;;;;;;;10.20;7.53;;;;;;;;;;5040161;28;20037;-72
2022/04/03 09:21:25;;;;;;;9.00;6.88;;;;;;;;;;5042613;28;20033;-72
2022/04/03 09:23:57;;;;;;;9.65;7.10;;;;;;;;;;5039388;28;20083;-72
2022/04/03 09:26:24;;;;;;;9.10;6.32;;;;;;;;;;5037285;28;20040;-73
2022/04/03 09:28:50;;;;;;;7.95;6.53;;;;;;;;;;5047610;28;20555;-72
2022/04/03 09:31:30;;;;;;;8.93;6.70;;;;;;;;;;5041004;28;20036;-72
2022/04/03 09:34:00;;;;;;;10.23;6.95;;;;;;;;;;5046833;28;20029;-72
2022/04/03 09:36:29;;;;;;;8.00;6.55;;;;;;;;;;5050006;28;20112;-72
2022/04/03 09:39:04;;;;;;;10.68;7.30;;;;;;;;;;5042416;28;20111;-72
2022/04/03 09:41:30;;;;;;;8.00;6.28;;;;;;;;;;5046466;28;20394;-72
2022/04/03 09:43:56;;;;;;;8.85;6.43;;;;;;;;;;5049513;28;20037;-72
2022/04/03 09:46:26;;;;;;;8.35;6.25;;;;;;;;;;5047762;28;20037;-73
2022/04/03 09:48:52;;;;;;;9.52;5.85;;;;;;;;;;5049433;28;20033;-72
2022/04/03 09:51:22;;;;;;;10.27;7.22;;;;;;;;;;5046032;28;20021;-72
2022/04/03 09:53:53;;;;;;;10.07;7.68;;;;;;;;;;5035140;28;20063;-71
2022/04/03 09:56:25;;;;;;;9.88;7.40;;;;;;;;;;5043371;28;20055;-71
2022/04/03 09:58:51;;;;;;;9.15;7.20;;;;;;;;;;5036753;28;20051;-71
2022/04/03 10:01:23;;;;;;;8.27;5.93;;;;;;;;;;5048066;28;20047;-72
2022/04/03 10:03:50;;;;;;;8.57;6.10;;;;;;;;;;5046308;28;20073;-72
2022/04/03 10:06:16;;;;;;;8.07;6.63;;;;;;;;;;5041786;28;20090;-72
2022/04/03 10:08:42;;;;;;;10.80;6.85;;;;;;;;;;5045308;28;20044;-72
2022/04/03 10:11:09;;;;;;;9.43;7.72;;;;;;;;;;5048055;28;20034;-72
2022/04/03 10:13:36;;;;;;;9.55;7.47;;;;;;;;;;5048397;28;20035;-72
2022/04/03 10:16:02;;;;;;;10.30;6.25;;;;;;;;;;5044426;28;20029;-72
2022/04/03 10:18:28;;;;;;;9.20;6.78;;;;;;;;;;5045945;28;20037;-72
2022/04/03 10:20:54;;;;;;;10.18;6.35;;;;;;;;;;5046469;28;20395;-72
2022/04/03 10:23:22;;;;;;;7.82;5.72;;;;;;;;;;5046140;28;20040;-72
2022/04/03 10:25:50;;;;;;;8.00;6.00;;;;;;;;;;5037073;28;20481;-72
2022/04/03 10:28:20;;;;;;;7.68;6.07;;;;;;;;;;5036520;28;20091;-72
2022/04/03 10:30:57;;;;;;;7.72;5.95;;;;;;;;;;5047180;28;20395;-72
2022/04/03 10:33:24;;;;;;;9.63;6.22;;;;;;;;;;5041050;28;20048;-72
2022/04/03 10:36:02;;;;;;;9.43;6.20;;;;;;;;;;5040019;28;20029;-72
2022/04/03 10:38:35;;;;;;;7.80;5.93;;;;;;;;;;5040866;28;20384;-72
2022/04/03 10:41:01;;;;;;;7.78;5.32;;;;;;;;;;5036518;28;20037;-72
2022/04/03 10:43:31;;;;;;;7.05;5.28;;;;;;;;;;5040327;28;20034;-71
2022/04/03 10:45:57;;;;;;;8.07;6.10;;;;;;;;;;5042492;28;20047;-72
2022/04/03 10:48:26;;;;;;;8.82;5.90;;;;;;;;;;5041247;28;20079;-72
2022/04/03 10:51:09;;;;;;;8.02;5.43;;;;;;;;;;5039048;28;20025;-72
2022/04/03 10:53:36;;;;;;;7.82;5.57;;;;;;;;;;5039451;28;20065;-72
2022/04/03 10:56:23;;;;;;;8.55;6.35;;;;;;;;;;5041370;28;20088;-72
2022/04/03 10:58:50;;;;;;;8.10;5.78;;;;;;;;;;5040657;28;20048;-72
2022/04/03 11:01:24;;;;;;;8.13;6.03;;;;;;;;;;5035964;28;20029;-72
2022/04/03 11:03:54;;;;;;;7.55;5.63;;;;;;;;;;5039296;28;20033;-72
2022/04/03 11:06:21;;;;;;;7.65;5.72;;;;;;;;;;5040377;28;20033;-72
2022/04/03 11:08:58;;;;;;;7.47;5.55;;;;;;;;;;5037064;28;20043;-72
2022/04/03 11:11:31;;;;;;;7.45;5.43;;;;;;;;;;5037905;28;20034;-72
2022/04/03 11:13:57;;;;;;;7.38;5.45;;;;;;;;;;5042675;28;20047;-72
2022/04/03 11:16:23;;;;;;;7.13;5.72;;;;;;;;;;5037312;28;20381;-72
2022/04/03 11:18:51;;;;;;;7.75;5.53;;;;;;;;;;5041253;28;20037;-72
2022/04/03 11:21:28;;;;;;;9.50;5.80;;;;;;;;;;5031708;28;20078;-72
2022/04/03 11:24:06;;;;;;;8.32;5.93;;;;;;;;;;5045083;28;20036;-72
2022/04/03 11:26:33;;;;;;;8.27;6.03;;;;;;;;;;5033080;28;20112;-72
2022/04/03 11:29:00;;;;;;;8.68;6.30;;;;;;;;;;5036199;28;20037;-72
2022/04/03 11:31:26;;;;;;;8.10;5.50;;;;;;;;;;5037670;28;20811;-72
2022/04/03 11:33:53;;;;;;;7.05;5.75;;;;;;;;;;5054740;28;20025;-72
2022/04/03 11:36:25;;;;;;;7.68;5.45;;;;;;;;;;5034456;28;20076;-72
2022/04/03 11:38:52;;;;;;;8.20;5.85;;;;;;;;;;5032194;28;20079;-71
2022/04/03 11:41:20;;;;;;;7.20;5.60;;;;;;;;;;5042327;28;20431;-72
2022/04/03 11:43:57;;;;;;;8.23;5.97;;;;;;;;;;5039853;28;20049;-72
2022/04/03 11:46:23;;;;;;;8.23;5.78;;;;;;;;;;5038164;28;20700;-72
2022/04/03 11:48:49;;;;;;;8.32;6.20;;;;;;;;;;5040011;28;20046;-72
2022/04/03 11:51:17;;;;;;;7.55;5.65;;;;;;;;;;5034957;28;20033;-72
2022/04/03 11:53:44;;;;;;;6.53;4.72;;;;;;;;;;5038665;28;20078;-72
2022/04/03 11:56:11;;;;;;;6.95;4.90;;;;;;;;;;5040204;28;20032;-72
2022/04/03 11:58:50;;;;;;;7.40;5.13;;;;;;;;;;5046175;28;20829;-72
2022/04/03 12:01:30;;;;;;;7.25;5.65;;;;;;;;;;5044281;28;20125;-72
2022/04/03 12:04:05;;;;;;;7.70;5.70;;;;;;;;;;5033984;28;20073;-72
2022/04/03 12:06:31;;;;;;;7.57;5.35;;;;;;;;;;5037619;28;20044;-72
2022/04/03 12:08:58;;;;;;;9.57;6.35;;;;;;;;;;5037881;28;20033;-72
2022/04/03 12:11:29;;;;;;;7.25;4.75;;;;;;;;;;5040124;28;20037;-72
2022/04/03 12:13:57;;;;;;;9.10;5.85;;;;;;;;;;5038752;28;20025;-72
2022/04/03 12:16:24;;;;;;;8.65;5.30;;;;;;;;;;5038911;28;20212;-72
2022/04/03 12:18:54;;;;;;;7.38;4.85;;;;;;;;;;5042272;28;20033;-72
2022/04/03 12:21:20;;;;;;;8.88;5.63;;;;;;;;;;5038001;28;20037;-72
2022/04/03 12:24:03;;;;;;;8.10;5.30;;;;;;;;;;5044777;28;20806;-72
2022/04/03 12:26:30;;;;;;;6.43;4.85;;;;;;;;;;5039438;28;20033;-72
2022/04/03 12:28:56;;;;;;;7.22;4.68;;;;;;;;;;5038773;28;20106;-72
2022/04/03 12:31:32;;;;;;;7.03;4.10;;;;;;;;;;5049261;28;20048;-72
2022/04/03 12:34:04;;;;;;;5.95;4.38;;;;;;;;;;5043609;28;20061;-72
2022/04/03 12:36:39;;;;;;;8.40;5.07;;;;;;;;;;5043890;28;20057;-72
2022/04/03 12:39:06;;;;;;;7.95;5.25;;;;;;;;;;5036346;28;20028;-72
2022/04/03 12:41:32;;;;;;;6.90;4.47;;;;;;;;;;5039793;28;20135;-72
2022/04/03 12:43:59;;;;;;;7.75;5.30;;;;;;;;;;5053523;28;20128;-72
2022/04/03 12:46:35;;;;;;;6.50;4.10;;;;;;;;;;5039798;28;20107;-72
2022/04/03 12:49:01;;;;;;;8.93;5.13;;;;;;;;;;5037811;28;20071;-72
2022/04/03 12:51:27;;;;;;;7.03;5.03;;;;;;;;;;5040123;28;20033;-72
2022/04/03 12:53:57;;;;;;;7.70;5.22;;;;;;;;;;5040131;28;20032;-71
2022/04/03 12:58:24;;;;;;;8.63;4.90;;;;;;;;;;5038542;28;20034;-72
2022/04/03 12:59:20;;;;;;;6.55;4.28;;;;;;;;;;5042481;28;20431;-72
2022/04/03 13:01:51;;;;;;;6.75;4.57;;;;;;;;;;5043700;28;20037;-72
2022/04/03 13:04:32;;;;;;;8.70;4.78;;;;;;;;;;5042274;28;20100;-72
2022/04/03 13:06:59;;;;;;;7.85;5.20;;;;;;;;;;5045509;28;20103;-72
2022/04/03 13:09:25;;;;;;;8.68;5.63;;;;;;;;;;5041201;28;20040;-72
2022/04/03 13:11:54;;;;;;;7.13;4.93;;;;;;;;;;5044281;28;20507;-72
2022/04/03 13:14:22;;;;;;;8.13;4.93;;;;;;;;;;5042544;28;20021;-71
2022/04/03 13:16:48;;;;;;;7.85;5.03;;;;;;;;;;5036144;28;20580;-72
2022/04/03 13:19:15;;;;;;;7.22;4.85;;;;;;;;;;5045375;28;20032;-72
2022/04/03 13:21:42;;;;;;;7.07;5.28;;;;;;;;;;5041203;28;20116;-72
2022/04/03 13:24:08;;;;;;;8.23;4.93;;;;;;;;;;5040816;28;20465;-72
2022/04/03 13:26:34;;;;;;;6.63;4.57;;;;;;;;;;5033823;28;20349;-72
2022/04/03 13:29:00;;;;;;;8.68;5.10;;;;;;;;;;5034199;28;20060;-72
2022/04/03 13:31:27;;;;;;;8.48;5.22;;;;;;;;;;5041827;28;20053;-72
2022/04/03 13:33:53;;;;;;;7.05;4.60;;;;;;;;;;5034289;28;20048;-72
2022/04/03 13:36:19;;;;;;;6.55;4.20;;;;;;;;;;5037827;28;20025;-72
2022/04/03 13:38:46;;;;;;;6.70;4.80;;;;;;;;;;5041641;28;20120;-72
2022/04/03 13:41:13;;;;;;;6.47;4.70;;;;;;;;;;5038830;28;20033;-72
2022/04/03 13:43:40;;;;;;;6.93;4.53;;;;;;;;;;5036304;28;20050;-72
2022/04/03 13:46:06;;;;;;;7.18;4.95;;;;;;;;;;5035763;28;20033;-72
2022/04/03 13:48:37;;;;;;;8.07;4.82;;;;;;;;;;5037941;28;20033;-72
2022/04/03 13:51:13;;;;;;;6.85;4.72;;;;;;;;;;5039570;28;20411;-72
2022/04/03 13:53:40;;;;;;;7.47;4.70;;;;;;;;;;5037371;28;20037;-72
2022/04/03 13:56:07;;;;;;;9.02;5.20;;;;;;;;;;5041147;28;20106;-72
2022/04/03 13:58:34;;;;;;;7.35;4.80;;;;;;;;;;5038162;28;20033;-72
2022/04/03 14:01:01;;;;;;;8.02;4.85;;;;;;;;;;5040996;28;20025;-72
2022/04/03 14:03:28;;;;;;;8.57;4.80;;;;;;;;;;5055247;28;20488;-72
2022/04/03 14:05:54;;;;;;;8.32;5.30;;;;;;;;;;5036606;28;20503;-72
2022/04/03 14:08:20;;;;;;;8.00;4.88;;;;;;;;;;5039637;28;20070;-72
2022/04/03 14:10:50;;;;;;;7.50;4.93;;;;;;;;;;5042486;28;20104;-72
2022/04/03 14:13:16;;;;;;;9.90;4.78;;;;;;;;;;5041213;28;20593;-72
2022/04/03 14:15:43;;;;;;;8.63;5.22;;;;;;;;;;5037069;28;20033;-72
2022/04/03 14:18:09;;;;;;;9.98;5.90;;;;;;;;;;5037509;28;20044;-72
2022/04/03 14:20:35;;;;;;;12.27;5.70;;;;;;;;;;5040098;28;20029;-72
2022/04/03 14:23:01;;;;;;;7.72;5.05;;;;;;;;;;5041221;28;20032;-72
2022/04/03 14:25:27;;;;;;;7.15;5.25;;;;;;;;;;5039807;28;20046;-72
2022/04/03 14:27:53;;;;;;;7.78;5.00;;;;;;;;;;5036731;28;20067;-71
2022/04/03 14:30:19;;;;;;;8.50;4.75;;;;;;;;;;5045076;28;20514;-72
2022/04/03 14:32:48;;;;;;;7.03;4.85;;;;;;;;;;5036607;28;20108;-72
2022/04/03 14:35:14;;;;;;;8.52;5.10;;;;;;;;;;5038873;28;20116;-72